Time;durP1;ratioP1;P1;durP2;ratioP2;P2;SDS_P1;SDS_P2;PMS_P1;PMS_P2;Temp;Humidity;BMP_temperature;BMP_pressure;BME280_temperature;BME280_humidity;BME280_pressure;Samples;Min_cycle;Max_cycle;Signal;HPM_P1;HPM_P2
2022/01/05 00:00:54;;;;;;;7.22;2.97;;;4.00;99.90;;;;;;5131726;28;20175;-71
2022/01/05 00:03:20;;;;;;;6.03;2.97;;;3.70;99.90;;;;;;5113062;28;20332;-72
2022/01/05 00:05:46;;;;;;;5.88;2.92;;;3.60;99.90;;;;;;5131592;28;20155;-72
2022/01/05 00:08:14;;;;;;;6.53;3.65;;;3.50;99.90;;;;;;5131487;28;20151;-72
2022/01/05 00:10:40;;;;;;;8.07;3.30;;;3.40;99.90;;;;;;5131486;28;20147;-71
2022/01/05 00:13:06;;;;;;;6.85;3.28;;;3.40;99.90;;;;;;5131394;28;20197;-71
2022/01/05 00:15:32;;;;;;;5.72;2.80;;;3.30;99.90;;;;;;5131300;28;20178;-72
2022/01/05 00:17:58;;;;;;;5.57;3.17;;;3.20;99.90;;;;;;5112064;28;20170;-72
2022/01/05 00:20:24;;;;;;;5.20;2.88;;;3.30;99.90;;;;;;5131175;28;20162;-73
2022/01/05 00:22:50;;;;;;;5.15;2.15;;;3.40;99.90;;;;;;5112782;28;20256;-73
2022/01/05 00:25:16;;;;;;;6.90;2.28;;;3.30;99.90;;;;;;5131303;28;20208;-72
2022/01/05 00:27:42;;;;;;;7.72;3.08;;;3.40;99.90;;;;;;5131182;28;20155;-72
2022/01/05 00:30:09;;;;;;;3.35;2.35;;;3.50;99.90;;;;;;5130994;28;20214;-72
2022/01/05 00:32:35;;;;;;;3.65;2.13;;;3.60;99.90;;;;;;5112636;28;20690;-72
2022/01/05 00:35:02;;;;;;;3.05;2.08;;;3.60;99.90;;;;;;5130915;28;20151;-71
2022/01/05 00:37:27;;;;;;;3.03;2.30;;;3.50;99.90;;;;;;5130888;28;20173;-72
2022/01/05 00:39:53;;;;;;;3.40;1.85;;;3.40;99.90;;;;;;5130841;28;20166;-72
2022/01/05 00:42:19;;;;;;;4.72;2.15;;;3.30;99.90;;;;;;5121899;28;20226;-72
2022/01/05 00:44:45;;;;;;;5.18;2.20;;;3.20;99.90;;;;;;5110393;28;20223;-72
2022/01/05 00:47:11;;;;;;;4.78;2.63;;;3.30;99.90;;;;;;5115398;28;20198;-71
2022/01/05 00:49:37;;;;;;;5.32;2.65;;;3.30;99.90;;;;;;5130591;28;20181;-71
2022/01/05 00:52:03;;;;;;;4.10;2.75;;;3.30;99.90;;;;;;5112302;28;20318;-72
2022/01/05 00:54:29;;;;;;;4.78;2.45;;;3.30;99.90;;;;;;5112274;28;20167;-72
2022/01/05 00:56:55;;;;;;;6.10;2.17;;;3.40;99.90;;;;;;5130419;28;20162;-72
2022/01/05 00:59:21;;;;;;;3.65;1.98;;;3.40;99.90;;;;;;5111937;28;20230;-72
2022/01/05 01:01:47;;;;;;;7.97;2.25;;;3.40;99.90;;;;;;5130100;28;20233;-72
2022/01/05 01:04:14;;;;;;;4.88;2.40;;;3.40;99.90;;;;;;5130417;28;20598;-72
2022/01/05 01:06:40;;;;;;;6.32;1.63;;;3.40;99.90;;;;;;5130241;28;20170;-73
2022/01/05 01:09:06;;;;;;;4.63;2.63;;;3.40;99.90;;;;;;5130346;28;20159;-72
2022/01/05 01:11:32;;;;;;;3.78;2.20;;;3.50;99.90;;;;;;5130205;28;20194;-72
2022/01/05 01:13:58;;;;;;;4.45;2.28;;;3.50;99.90;;;;;;5130239;28;20622;-72
2022/01/05 01:16:24;;;;;;;9.48;3.20;;;3.60;99.90;;;;;;5130165;28;20589;-72
2022/01/05 01:18:49;;;;;;;13.05;2.70;;;3.60;99.90;;;;;;5111750;28;20181;-73
2022/01/05 01:21:15;;;;;;;9.57;2.70;;;3.60;99.90;;;;;;5129822;28;20212;-73
2022/01/05 01:23:52;;;;;;;5.03;2.90;;;3.60;99.90;;;;;;5111741;28;20167;-72
2022/01/05 01:26:19;;;;;;;5.78;2.63;;;3.50;99.90;;;;;;5129981;28;20212;-72
2022/01/05 01:28:45;;;;;;;8.00;2.20;;;3.50;99.90;;;;;;5111519;28;20158;-72
2022/01/05 01:31:10;;;;;;;4.53;2.65;;;3.50;99.90;;;;;;5129813;28;20159;-72
2022/01/05 01:33:36;;;;;;;5.28;2.58;;;3.50;99.90;;;;;;5129882;28;20189;-72
2022/01/05 01:36:03;;;;;;;3.15;2.22;;;3.50;99.90;;;;;;5111479;28;20159;-72
2022/01/05 01:38:29;;;;;;;6.43;2.97;;;3.50;99.90;;;;;;5111656;28;20192;-71
2022/01/05 01:40:54;;;;;;;4.88;2.13;;;3.30;99.90;;;;;;5130011;28;20147;-72
2022/01/05 01:43:20;;;;;;;6.70;2.65;;;3.20;99.90;;;;;;5112333;28;20202;-72
2022/01/05 01:45:46;;;;;;;7.43;2.25;;;3.20;99.90;;;;;;5109272;28;20231;-72
2022/01/05 01:48:12;;;;;;;5.88;2.17;;;3.20;99.90;;;;;;5125285;28;20174;-72
2022/01/05 01:50:38;;;;;;;6.60;2.35;;;3.10;99.90;;;;;;5111259;28;20178;-72
2022/01/05 01:53:04;;;;;;;10.63;2.47;;;3.30;99.90;;;;;;5111291;28;20205;-72
2022/01/05 01:55:30;;;;;;;4.38;2.30;;;3.30;99.90;;;;;;5111494;28;20234;-72
2022/01/05 01:57:56;;;;;;;3.03;2.03;;;3.30;99.90;;;;;;5129469;28;20161;-72
2022/01/05 02:00:22;;;;;;;6.82;2.78;;;3.40;99.90;;;;;;5129606;28;20246;-72
2022/01/05 02:02:48;;;;;;;4.30;2.58;;;3.40;99.90;;;;;;5111119;28;20210;-72
2022/01/05 02:05:14;;;;;;;6.57;2.35;;;3.50;99.90;;;;;;5129647;28;20155;-72
2022/01/05 02:07:40;;;;;;;3.47;2.55;;;3.50;99.90;;;;;;5111342;28;20159;-73
2022/01/05 02:10:08;;;;;;;6.30;2.88;;;3.60;99.90;;;;;;5129621;28;20159;-72
2022/01/05 02:12:34;;;;;;;6.90;3.25;;;3.50;99.90;;;;;;5129395;28;20191;-72
2022/01/05 02:15:00;;;;;;;5.53;3.42;;;3.60;99.90;;;;;;5111187;28;20534;-72
2022/01/05 02:17:49;;;;;;;3.88;2.38;;;3.50;99.90;;;;;;5129567;28;20241;-72
2022/01/05 02:20:24;;;;;;;8.90;3.03;;;3.50;99.90;;;;;;5129518;28;20230;-72
2022/01/05 02:22:51;;;;;;;10.30;2.33;;;3.60;99.90;;;;;;5129333;28;20197;-72
2022/01/05 02:25:17;;;;;;;7.25;2.65;;;3.50;99.90;;;;;;5129582;28;20165;-72
2022/01/05 02:27:45;;;;;;;6.40;2.65;;;3.50;99.90;;;;;;5111176;28;20190;-72
2022/01/05 02:30:14;;;;;;;4.63;1.95;;;3.50;99.90;;;;;;5129370;28;20162;-72
2022/01/05 02:32:40;;;;;;;3.22;2.63;;;3.60;99.90;;;;;;5129176;28;20197;-73
2022/01/05 02:35:08;;;;;;;5.20;2.55;;;3.50;99.90;;;;;;5110899;28;20171;-73
2022/01/05 02:37:40;;;;;;;4.63;2.05;;;3.50;99.90;;;;;;5129305;28;20159;-72
2022/01/05 02:40:09;;;;;;;4.82;3.08;;;3.60;99.90;;;;;;5130687;28;20159;-72
2022/01/05 02:42:35;;;;;;;3.75;2.63;;;3.60;99.90;;;;;;5122166;28;20220;-72
2022/01/05 02:45:01;;;;;;;2.95;1.77;;;3.60;99.90;;;;;;5112636;28;20152;-72
2022/01/05 02:47:27;;;;;;;3.55;2.47;;;3.60;99.90;;;;;;5122123;28;20704;-72
2022/01/05 02:49:57;;;;;;;9.95;3.10;;;3.60;99.90;;;;;;5146623;27;20158;-72
2022/01/05 02:52:23;;;;;;;2.97;1.88;;;3.50;99.90;;;;;;5153468;27;20186;-71
2022/01/05 02:54:49;;;;;;;3.65;2.55;;;3.40;99.90;;;;;;5153606;27;20162;-71
2022/01/05 02:57:15;;;;;;;5.38;2.00;;;3.60;99.90;;;;;;5153598;27;20158;-71
2022/01/05 02:59:41;;;;;;;8.18;2.17;;;3.60;99.90;;;;;;5135666;27;20243;-71
2022/01/05 03:02:07;;;;;;;7.22;2.10;;;3.60;99.90;;;;;;5114292;28;20292;-72
2022/01/05 03:04:33;;;;;;;3.95;2.10;;;3.60;99.90;;;;;;5132472;28;20159;-72
2022/01/05 03:06:59;;;;;;;7.15;2.55;;;3.60;99.90;;;;;;5114376;28;20196;-72
2022/01/05 03:09:26;;;;;;;3.80;2.33;;;3.60;99.90;;;;;;5114581;28;20178;-72
2022/01/05 03:11:52;;;;;;;3.45;1.92;;;3.50;99.90;;;;;;5132660;28;20190;-72
2022/01/05 03:14:19;;;;;;;4.13;2.13;;;3.50;99.90;;;;;;5114261;28;20185;-71
2022/01/05 03:16:45;;;;;;;9.93;3.00;;;3.50;99.90;;;;;;5132601;28;20162;-72
2022/01/05 03:19:11;;;;;;;6.28;2.50;;;3.60;99.90;;;;;;5114067;28;20209;-72
2022/01/05 03:21:37;;;;;;;9.27;2.47;;;3.60;99.90;;;;;;5114123;28;20566;-72
2022/01/05 03:24:03;;;;;;;9.05;2.20;;;3.60;99.90;;;;;;5132499;28;20162;-72
2022/01/05 03:26:29;;;;;;;3.53;2.15;;;3.60;99.90;;;;;;5132404;28;20162;-72
2022/01/05 03:28:55;;;;;;;3.60;2.08;;;3.60;99.90;;;;;;5132282;28;20165;-72
2022/01/05 03:31:21;;;;;;;2.95;1.80;;;3.50;99.90;;;;;;5132064;28;20688;-72
2022/01/05 03:33:47;;;;;;;4.90;2.25;;;3.30;99.90;;;;;;5132101;28;20163;-72
2022/01/05 03:36:12;;;;;;;4.90;1.73;;;3.30;99.90;;;;;;5132806;28;20157;-71
2022/01/05 03:38:38;;;;;;;5.88;2.50;;;3.40;99.90;;;;;;5113804;28;20187;-72
2022/01/05 03:41:04;;;;;;;7.20;3.47;;;3.40;99.90;;;;;;5132157;28;20705;-73
2022/01/05 03:43:30;;;;;;;7.90;2.60;;;3.40;99.90;;;;;;5131899;28;20242;-72
2022/01/05 03:45:56;;;;;;;7.40;2.80;;;3.40;99.90;;;;;;5131734;28;20151;-72
2022/01/05 03:48:23;;;;;;;6.07;2.47;;;3.40;99.90;;;;;;5113354;28;20190;-72
2022/01/05 03:50:49;;;;;;;6.80;2.55;;;3.40;99.90;;;;;;5112913;28;20174;-72
2022/01/05 03:53:16;;;;;;;10.23;2.83;;;3.40;99.90;;;;;;5113030;28;20202;-72
2022/01/05 03:55:44;;;;;;;7.35;2.53;;;3.40;99.90;;;;;;5104680;28;20187;-72
2022/01/05 03:58:10;;;;;;;8.32;2.88;;;3.60;99.90;;;;;;5094568;28;20297;-72
2022/01/05 04:00:41;;;;;;;8.95;3.15;;;3.50;99.90;;;;;;5111131;28;20213;-72
2022/01/05 04:03:08;;;;;;;14.43;3.17;;;3.50;99.90;;;;;;5111042;28;20671;-72
2022/01/05 04:05:33;;;;;;;5.78;3.30;;;3.50;99.90;;;;;;5109520;28;20160;-73
2022/01/05 04:07:59;;;;;;;8.30;2.42;;;3.40;99.90;;;;;;5111086;28;20152;-72
2022/01/05 04:10:26;;;;;;;7.55;3.13;;;3.40;99.90;;;;;;5110929;28;20191;-72
2022/01/05 04:12:52;;;;;;;5.85;2.15;;;3.30;99.90;;;;;;5110921;28;20180;-73
2022/01/05 04:15:18;;;;;;;3.97;2.30;;;3.40;99.90;;;;;;5110903;28;20166;-72
2022/01/05 04:17:45;;;;;;;7.00;2.92;;;3.50;99.90;;;;;;5110786;28;20163;-73
2022/01/05 04:20:12;;;;;;;6.45;2.92;;;3.50;99.90;;;;;;5110852;28;20567;-72
2022/01/05 04:22:40;;;;;;;3.58;2.42;;;3.50;99.90;;;;;;5110700;28;20250;-72
2022/01/05 04:25:06;;;;;;;7.15;2.05;;;3.40;99.90;;;;;;5092607;28;20164;-71
2022/01/05 04:27:32;;;;;;;5.40;2.65;;;3.40;99.90;;;;;;5110694;28;20164;-72
2022/01/05 04:29:58;;;;;;;4.15;2.55;;;3.40;99.90;;;;;;5110487;28;20198;-73
2022/01/05 04:32:24;;;;;;;5.22;3.08;;;3.40;99.90;;;;;;5092393;28;20179;-72
2022/01/05 04:34:50;;;;;;;6.18;3.17;;;3.30;99.90;;;;;;5110521;28;20163;-73
2022/01/05 04:37:16;;;;;;;3.80;2.20;;;3.40;99.90;;;;;;5092363;28;20172;-72
2022/01/05 04:39:42;;;;;;;7.97;2.83;;;3.30;99.90;;;;;;5110389;28;20190;-72
2022/01/05 04:42:08;;;;;;;4.80;2.53;;;3.20;99.90;;;;;;5110051;28;20187;-73
2022/01/05 04:44:34;;;;;;;3.55;2.50;;;3.20;99.90;;;;;;5092103;28;20175;-72
2022/01/05 04:47:00;;;;;;;4.55;2.50;;;3.30;99.90;;;;;;5092020;28;20178;-71
2022/01/05 04:49:26;;;;;;;6.30;3.88;;;3.40;99.90;;;;;;5110046;28;20199;-73
2022/01/05 04:51:52;;;;;;;4.15;2.25;;;3.40;99.90;;;;;;5109950;28;20159;-73
2022/01/05 04:54:18;;;;;;;7.45;3.15;;;3.50;99.90;;;;;;5110172;28;20235;-72
2022/01/05 04:56:44;;;;;;;4.57;2.10;;;3.60;99.90;;;;;;5110073;28;20167;-73
2022/01/05 04:59:10;;;;;;;3.63;2.10;;;3.60;99.90;;;;;;5109550;28;20282;-72
2022/01/05 05:01:36;;;;;;;8.45;2.63;;;3.60;99.90;;;;;;5091380;28;20171;-71
2022/01/05 05:04:03;;;;;;;3.92;2.85;;;3.60;99.90;;;;;;5091479;28;20585;-71
2022/01/05 05:06:29;;;;;;;10.13;2.90;;;3.50;99.90;;;;;;5109852;28;20177;-72
2022/01/05 05:08:54;;;;;;;5.15;3.03;;;3.50;99.90;;;;;;5109873;28;20221;-73
2022/01/05 05:11:21;;;;;;;10.68;6.50;;;3.60;99.90;;;;;;5109863;28;20156;-72
2022/01/05 05:13:47;;;;;;;5.60;3.15;;;3.60;99.90;;;;;;5109882;28;20147;-72
2022/01/05 05:16:13;;;;;;;10.60;5.13;;;3.50;99.90;;;;;;5109780;28;20285;-72
2022/01/05 05:18:38;;;;;;;8.38;2.72;;;3.60;99.90;;;;;;5109521;28;20187;-72
2022/01/05 05:21:05;;;;;;;15.05;7.72;;;3.60;99.90;;;;;;5109592;28;20631;-72
2022/01/05 05:23:31;;;;;;;7.25;2.65;;;3.60;99.90;;;;;;5109425;28;20194;-72
2022/01/05 05:25:57;;;;;;;5.32;3.47;;;3.60;99.90;;;;;;5109730;28;20158;-72
2022/01/05 05:28:23;;;;;;;4.82;2.38;;;3.60;99.90;;;;;;5108146;28;20159;-73
2022/01/05 05:30:49;;;;;;;4.65;3.25;;;3.50;99.90;;;;;;5091240;28;20167;-72
2022/01/05 05:33:15;;;;;;;8.25;4.40;;;3.50;99.90;;;;;;5109468;28;20178;-72
2022/01/05 05:35:42;;;;;;;5.85;3.10;;;3.60;99.90;;;;;;5091196;28;20171;-73
2022/01/05 05:38:09;;;;;;;5.28;2.70;;;3.70;99.90;;;;;;5091282;28;20174;-72
2022/01/05 05:40:35;;;;;;;4.75;3.13;;;3.80;99.90;;;;;;5109475;28;20195;-71
2022/01/05 05:43:01;;;;;;;5.55;3.35;;;4.00;99.90;;;;;;5109234;28;20209;-72
2022/01/05 05:45:28;;;;;;;4.78;1.90;;;4.00;99.90;;;;;;5091202;28;20168;-72
2022/01/05 05:47:54;;;;;;;5.82;2.38;;;4.00;99.90;;;;;;5109310;28;20158;-72
2022/01/05 05:50:20;;;;;;;5.32;2.67;;;4.10;99.90;;;;;;5109165;28;20187;-73
2022/01/05 05:52:46;;;;;;;3.80;2.10;;;4.10;99.90;;;;;;5109230;28;20246;-72
2022/01/05 05:55:12;;;;;;;3.70;2.28;;;4.00;99.90;;;;;;5109546;28;20223;-73
2022/01/05 05:57:38;;;;;;;9.48;2.70;;;3.90;99.90;;;;;;5109011;28;20164;-74
2022/01/05 06:00:06;;;;;;;3.67;2.60;;;3.90;99.90;;;;;;5109137;28;20293;-73
2022/01/05 06:02:32;;;;;;;7.10;2.35;;;3.80;99.90;;;;;;5107925;28;20248;-72
2022/01/05 06:04:58;;;;;;;6.13;2.42;;;3.80;99.90;;;;;;5109208;28;20152;-72
2022/01/05 06:07:24;;;;;;;4.43;2.53;;;3.90;99.90;;;;;;5109268;28;20223;-72
2022/01/05 06:09:50;;;;;;;6.18;2.78;;;4.00;99.90;;;;;;5109086;28;20682;-72
2022/01/05 06:12:16;;;;;;;8.57;3.15;;;4.10;99.90;;;;;;5109149;28;20221;-73
2022/01/05 06:14:42;;;;;;;7.80;2.40;;;4.20;99.90;;;;;;5091722;28;20535;-72
2022/01/05 06:17:08;;;;;;;11.27;2.55;;;4.20;99.90;;;;;;5113135;28;20160;-73
2022/01/05 06:19:34;;;;;;;8.10;2.70;;;4.20;99.90;;;;;;5113020;28;20207;-73
2022/01/05 06:21:59;;;;;;;2.78;1.85;;;4.30;99.90;;;;;;5112999;28;20671;-72
2022/01/05 06:24:26;;;;;;;3.58;2.13;;;4.30;99.90;;;;;;5113094;28;20160;-72
2022/01/05 06:26:52;;;;;;;7.30;3.30;;;4.40;99.90;;;;;;5112954;28;20160;-73
2022/01/05 06:29:19;;;;;;;7.45;3.33;;;4.30;99.90;;;;;;5094797;28;20191;-73
2022/01/05 06:31:45;;;;;;;3.53;2.63;;;4.30;99.90;;;;;;5112968;28;20160;-72
2022/01/05 06:34:11;;;;;;;3.58;2.42;;;4.20;99.90;;;;;;5112777;28;20163;-72
2022/01/05 06:36:37;;;;;;;6.55;2.63;;;4.20;99.90;;;;;;5112875;28;20156;-72
2022/01/05 06:39:04;;;;;;;4.65;3.03;;;4.30;99.90;;;;;;5112717;28;20260;-72
2022/01/05 06:41:30;;;;;;;10.23;2.92;;;4.30;99.90;;;;;;5094406;28;20171;-73
2022/01/05 06:43:56;;;;;;;4.95;2.78;;;4.40;99.90;;;;;;5112718;28;20148;-72
2022/01/05 06:46:22;;;;;;;8.07;3.08;;;4.40;99.90;;;;;;5112727;28;20158;-73
2022/01/05 06:48:49;;;;;;;7.78;2.80;;;4.40;99.90;;;;;;5112567;28;20213;-73
2022/01/05 06:51:15;;;;;;;7.75;3.47;;;4.50;99.90;;;;;;5112500;28;20643;-73
2022/01/05 06:53:41;;;;;;;4.80;2.85;;;4.60;99.90;;;;;;5094380;28;20168;-73
2022/01/05 06:56:07;;;;;;;4.82;2.72;;;4.60;99.90;;;;;;5112305;28;20183;-73
2022/01/05 06:58:33;;;;;;;4.55;2.85;;;4.60;99.90;;;;;;5093811;28;20219;-72
2022/01/05 07:01:00;;;;;;;6.25;2.40;;;4.70;99.90;;;;;;5112145;28;20203;-73
2022/01/05 07:03:26;;;;;;;6.38;3.13;;;4.80;99.90;;;;;;5094025;28;20206;-72
2022/01/05 07:05:51;;;;;;;3.85;2.03;;;4.80;99.90;;;;;;5112188;28;20156;-73
2022/01/05 07:08:19;;;;;;;4.35;2.22;;;4.80;99.90;;;;;;5111993;28;20160;-72
2022/01/05 07:10:45;;;;;;;5.03;2.55;;;4.70;99.90;;;;;;5112268;28;20185;-72
2022/01/05 07:13:11;;;;;;;5.25;2.92;;;4.70;99.90;;;;;;5112153;28;20216;-72
2022/01/05 07:15:37;;;;;;;5.72;2.53;;;4.70;99.90;;;;;;5093903;28;20624;-72
2022/01/05 07:18:03;;;;;;;6.32;2.42;;;4.70;99.90;;;;;;5093859;28;20171;-73
2022/01/05 07:20:29;;;;;;;4.20;2.20;;;4.70;99.90;;;;;;5093436;28;20248;-73
2022/01/05 07:22:54;;;;;;;4.85;2.47;;;4.70;99.90;;;;;;5111845;28;20175;-72
2022/01/05 07:25:20;;;;;;;2.70;2.13;;;4.80;99.90;;;;;;5111708;28;20242;-73
2022/01/05 07:27:46;;;;;;;6.45;2.42;;;4.80;99.90;;;;;;5093659;28;20168;-73
2022/01/05 07:30:12;;;;;;;6.32;2.72;;;4.90;99.90;;;;;;5111853;28;20191;-72
2022/01/05 07:32:40;;;;;;;5.05;2.72;;;5.00;99.90;;;;;;5093288;28;20164;-72
2022/01/05 07:35:06;;;;;;;9.27;2.72;;;5.10;99.90;;;;;;5111803;28;20156;-72
2022/01/05 07:37:32;;;;;;;5.60;2.83;;;5.30;99.90;;;;;;5111662;28;20163;-72
2022/01/05 07:39:58;;;;;;;6.78;2.38;;;5.30;99.90;;;;;;5111549;28;20199;-72
2022/01/05 07:42:24;;;;;;;5.53;2.33;;;5.40;99.90;;;;;;5111384;28;20547;-72
2022/01/05 07:44:51;;;;;;;5.20;2.85;;;5.40;99.90;;;;;;5111609;28;20160;-73
2022/01/05 07:47:17;;;;;;;7.55;2.80;;;5.50;99.90;;;;;;5093321;28;20189;-73
2022/01/05 07:49:43;;;;;;;12.07;2.70;;;5.50;99.90;;;;;;5111146;28;20209;-73
2022/01/05 07:52:09;;;;;;;5.75;2.50;;;5.60;99.90;;;;;;5111382;28;20155;-72
2022/01/05 07:54:36;;;;;;;6.25;2.15;;;5.70;99.90;;;;;;5093163;28;20185;-73
2022/01/05 07:57:03;;;;;;;3.17;2.08;;;5.70;99.90;;;;;;5111432;28;20155;-72
2022/01/05 07:59:29;;;;;;;6.75;2.85;;;5.80;99.90;;;;;;5092609;28;20318;-73
2022/01/05 08:01:55;;;;;;;4.72;2.28;;;5.80;99.90;;;;;;5111025;28;20198;-73
2022/01/05 08:04:21;;;;;;;4.60;2.35;;;5.80;99.90;;;;;;5111225;28;20174;-73
2022/01/05 08:06:47;;;;;;;4.60;2.72;;;5.80;99.90;;;;;;5110574;28;20155;-73
2022/01/05 08:09:13;;;;;;;4.75;2.30;;;5.80;99.90;;;;;;5111001;28;20193;-72
2022/01/05 08:11:39;;;;;;;4.25;2.25;;;5.80;99.90;;;;;;5111127;28;20160;-73
2022/01/05 08:14:05;;;;;;;4.15;2.30;;;5.80;99.90;;;;;;5110956;28;20158;-73
2022/01/05 08:16:31;;;;;;;9.23;4.05;;;5.70;99.90;;;;;;5110819;28;20152;-72
2022/01/05 08:18:56;;;;;;;4.57;2.33;;;5.80;99.90;;;;;;5092480;28;20217;-73
2022/01/05 08:21:23;;;;;;;4.50;2.08;;;5.90;99.90;;;;;;5092605;28;20163;-72
2022/01/05 08:23:50;;;;;;;4.82;2.05;;;6.00;99.90;;;;;;5092762;28;20715;-72
2022/01/05 08:26:16;;;;;;;5.47;2.60;;;6.10;99.90;;;;;;5110843;28;20525;-73
2022/01/05 08:28:41;;;;;;;4.30;1.60;;;6.10;99.90;;;;;;5092494;28;20191;-72
2022/01/05 08:31:07;;;;;;;4.65;2.22;;;6.30;99.90;;;;;;5110786;28;20155;-72
2022/01/05 08:33:34;;;;;;;2.95;1.83;;;6.40;99.90;;;;;;5092259;28;20175;-72
2022/01/05 08:36:02;;;;;;;5.75;2.15;;;6.40;99.90;;;;;;5110327;28;20283;-73
2022/01/05 08:38:29;;;;;;;7.43;2.50;;;6.50;99.90;;;;;;5109586;28;20634;-72
2022/01/05 08:40:55;;;;;;;5.78;2.55;;;6.60;99.90;;;;;;5092163;28;20171;-72
2022/01/05 08:43:21;;;;;;;5.35;2.60;;;6.60;99.90;;;;;;5110171;28;20213;-73
2022/01/05 08:45:49;;;;;;;5.20;2.25;;;6.70;99.90;;;;;;5110161;28;20164;-72
2022/01/05 08:48:16;;;;;;;2.42;1.60;;;6.70;99.90;;;;;;5110213;28;20183;-73
2022/01/05 08:50:42;;;;;;;2.90;1.98;;;6.90;99.90;;;;;;5109926;28;20159;-73
2022/01/05 08:53:08;;;;;;;7.82;3.05;;;7.00;99.90;;;;;;5091875;28;20163;-72
2022/01/05 08:55:42;;;;;;;6.90;2.53;;;7.00;99.90;;;;;;5110152;28;20227;-73
2022/01/05 08:58:09;;;;;;;5.05;2.83;;;7.10;99.90;;;;;;5091497;28;20278;-73
2022/01/05 09:00:36;;;;;;;6.90;2.33;;;7.20;99.90;;;;;;5109822;28;20224;-73
2022/01/05 09:03:04;;;;;;;2.35;2.00;;;7.20;99.90;;;;;;5110017;28;20209;-73
2022/01/05 09:05:30;;;;;;;5.40;1.95;;;7.20;99.90;;;;;;5091750;28;20168;-72
2022/01/05 09:07:57;;;;;;;5.22;2.10;;;7.20;99.90;;;;;;5109622;28;20187;-73
2022/01/05 09:10:23;;;;;;;5.45;1.90;;;7.30;99.90;;;;;;5109621;28;20183;-72
2022/01/05 09:12:49;;;;;;;3.83;1.55;;;7.40;99.90;;;;;;5091482;28;20175;-72
2022/01/05 09:15:15;;;;;;;3.38;1.63;;;7.40;99.90;;;;;;5109758;28;20155;-73
2022/01/05 09:17:41;;;;;;;1.77;1.38;;;7.40;99.90;;;;;;5109761;28;20163;-73
2022/01/05 09:20:08;;;;;;;2.13;0.95;;;7.60;99.90;;;;;;5091461;28;20216;-73
2022/01/05 09:22:38;;;;;;;1.30;0.90;;;7.90;99.90;;;;;;5091395;28;20279;-72
2022/01/05 09:25:09;;;;;;;1.52;1.08;;;7.80;99.90;;;;;;5109457;28;20178;-73
2022/01/05 09:27:37;;;;;;;1.23;1.10;;;7.60;99.90;;;;;;5109649;28;20143;-73
2022/01/05 09:30:12;;;;;;;2.75;1.17;;;7.50;99.90;;;;;;5091310;28;20194;-74
2022/01/05 09:32:39;;;;;;;1.80;1.10;;;7.30;99.90;;;;;;5091168;28;20185;-74
2022/01/05 09:35:07;;;;;;;1.77;0.90;;;7.00;99.90;;;;;;5109443;28;20179;-75
2022/01/05 09:37:38;;;;;;;1.25;1.10;;;7.00;99.90;;;;;;5108092;28;20171;-74
2022/01/05 09:42:50;;;;;;;1.15;0.60;;;7.00;99.90;;;;;;5109348;28;20595;-75
2022/01/05 09:45:19;;;;;;;0.50;0.50;;;7.10;99.90;;;;;;5111182;28;20175;-75
2022/01/05 09:47:45;;;;;;;0.30;0.30;;;7.00;99.90;;;;;;5094932;28;20189;-75
2022/01/05 09:50:14;;;;;;;0.80;0.40;;;6.90;99.90;;;;;;5129525;28;20214;-75
2022/01/05 09:52:44;;;;;;;0.65;0.40;;;6.90;99.90;;;;;;5111250;28;20193;-75
2022/01/05 09:55:12;;;;;;;1.92;0.40;;;6.90;99.90;;;;;;5102556;28;20175;-75
2022/01/05 09:57:40;;;;;;;0.30;0.30;;;6.90;99.90;;;;;;5125523;28;20170;-74
2022/01/05 10:00:10;;;;;;;0.68;0.50;;;6.80;99.90;;;;;;5091847;28;20202;-75
2022/01/05 10:02:37;;;;;;;1.55;0.40;;;6.70;99.90;;;;;;5095035;28;20197;-75
2022/01/05 10:05:05;;;;;;;3.90;0.82;;;6.70;99.90;;;;;;5129807;28;20155;-75
2022/01/05 10:07:34;;;;;;;1.65;0.63;;;6.70;99.90;;;;;;5120143;28;20175;-74
2022/01/05 10:09:59;;;;;;;3.78;1.17;;;6.70;99.90;;;;;;5107462;28;20221;-74
2022/01/05 10:12:25;;;;;;;0.85;0.60;;;6.60;99.90;;;;;;5105552;28;20175;-75
2022/01/05 10:14:51;;;;;;;0.40;0.25;;;6.50;99.90;;;;;;5129394;28;20170;-74
2022/01/05 10:17:28;;;;;;;5.05;0.52;;;6.50;99.90;;;;;;5111419;28;20538;-77
2022/01/05 10:19:58;;;;;;;0.95;0.40;;;6.50;99.90;;;;;;5111258;28;20198;-77
2022/01/05 10:22:44;;;;;;;1.20;0.40;;;6.40;99.90;;;;;;5128144;28;20190;-78
2022/01/05 10:25:23;;;;;;;0.60;0.30;;;6.50;99.90;;;;;;5132947;28;20194;-80
2022/01/05 10:28:01;;;;;;;0.40;0.40;;;6.40;99.90;;;;;;5128386;28;20193;-78
2022/01/05 10:30:37;;;;;;;0.52;0.30;;;6.40;99.90;;;;;;5143883;28;20189;-79
2022/01/05 10:33:03;;;;;;;3.88;1.85;;;6.40;99.90;;;;;;5131424;28;20173;-78
2022/01/05 10:35:29;;;;;;;1.27;0.85;;;6.30;99.90;;;;;;5131465;28;20191;-78
2022/01/05 10:38:03;;;;;;;5.25;2.30;;;6.40;99.90;;;;;;5131625;28;20170;-78
2022/01/05 10:40:33;;;;;;;3.00;1.73;;;6.30;99.90;;;;;;5131451;28;20194;-78
2022/01/05 10:43:05;;;;;;;2.33;1.65;;;6.30;99.90;;;;;;5090419;28;20202;-79
2022/01/05 10:45:53;;;;;;;1.08;0.77;;;6.30;99.90;;;;;;5090599;28;20160;-78
2022/01/05 10:48:22;;;;;;;1.10;1.00;;;6.30;99.90;;;;;;5090451;28;20274;-78
2022/01/05 10:51:04;;;;;;;0.63;0.63;;;6.30;99.90;;;;;;5108610;28;20167;-78
2022/01/05 10:53:30;;;;;;;1.50;1.10;;;6.20;99.90;;;;;;5090520;28;20628;-78
2022/01/05 10:55:55;;;;;;;0.82;0.70;;;6.20;99.90;;;;;;5124624;28;20231;-78
2022/01/05 10:58:21;;;;;;;0.75;0.73;;;6.20;99.90;;;;;;5128634;28;20229;-79
2022/01/05 11:00:53;;;;;;;1.50;1.00;;;6.10;99.90;;;;;;5129796;28;20178;-79
2022/01/05 11:03:30;;;;;;;1.40;0.63;;;6.20;99.90;;;;;;5119701;28;20293;-79
2022/01/05 11:06:04;;;;;;;1.85;1.40;;;6.10;99.90;;;;;;5111077;28;20171;-79
2022/01/05 11:08:46;;;;;;;0.52;0.52;;;6.10;99.90;;;;;;5110665;28;20171;-80
2022/01/05 11:11:41;;;;;;;0.40;0.40;;;6.10;99.90;;;;;;5093720;28;20191;-79
2022/01/05 11:14:09;;;;;;;1.40;1.20;;;6.10;99.90;;;;;;5093079;28;20179;-80
2022/01/05 11:16:39;;;;;;;2.00;1.10;;;6.10;99.90;;;;;;5111775;28;20167;-78
2022/01/05 11:19:12;;;;;;;2.63;1.05;;;6.10;99.90;;;;;;5127660;27;20202;-79
2022/01/05 11:21:56;;;;;;;0.20;0.20;;;6.10;99.90;;;;;;5152808;27;20154;-79
2022/01/05 11:24:23;;;;;;;0.25;0.25;;;6.10;99.90;;;;;;5134554;27;20208;-80
2022/01/05 11:26:50;;;;;;;0.55;0.30;;;6.10;99.90;;;;;;5152871;27;20610;-79
2022/01/05 11:29:16;;;;;;;0.30;0.30;;;6.10;99.90;;;;;;5125140;28;20587;-79
2022/01/05 11:31:44;;;;;;;0.30;0.30;;;6.10;99.90;;;;;;5113998;28;20167;-80
2022/01/05 11:34:11;;;;;;;0.28;0.28;;;6.20;99.90;;;;;;5132110;28;20171;-75
2022/01/05 11:36:42;;;;;;;0.17;0.17;;;6.10;99.90;;;;;;5132006;28;20180;-80
2022/01/05 11:39:08;;;;;;;0.20;0.20;;;6.10;99.90;;;;;;5131912;28;20189;-80
2022/01/05 11:41:40;;;;;;;0.10;0.10;;;6.20;99.90;;;;;;5113535;28;20174;-79
2022/01/05 11:44:06;;;;;;;1.95;0.20;;;6.10;99.90;;;;;;5113794;28;20171;-80
2022/01/05 11:46:32;;;;;;;0.10;0.10;;;6.20;99.90;;;;;;5113536;28;20182;-75
2022/01/05 11:49:07;;;;;;;0.30;0.30;;;6.20;99.90;;;;;;5122201;27;20242;-80
2022/01/05 11:51:42;;;;;;;1.75;0.32;;;6.30;99.90;;;;;;5133839;27;20180;-79
2022/01/05 11:54:20;;;;;;;0.30;0.20;;;6.30;99.90;;;;;;5152335;27;20186;-78
2022/01/05 11:57:04;;;;;;;0.30;0.30;;;6.30;99.90;;;;;;5136887;27;20170;-80
2022/01/05 11:59:36;;;;;;;1.08;0.30;;;6.30;99.90;;;;;;5131584;28;20230;-79
2022/01/05 12:02:09;;;;;;;1.75;0.30;;;6.30;99.90;;;;;;5110380;28;20600;-78
2022/01/05 12:04:56;;;;;;;0.35;0.20;;;6.30;99.90;;;;;;5110811;28;20266;-79
2022/01/05 12:07:48;;;;;;;0.10;0.10;;;6.30;99.90;;;;;;5131633;28;20178;-77
2022/01/05 12:10:21;;;;;;;0.13;0.08;;;6.30;99.90;;;;;;5113228;28;20227;-83
2022/01/05 12:13:05;;;;;;;0.55;0.30;;;6.30;99.90;;;;;;5111809;28;20523;-76
2022/01/05 12:15:56;;;;;;;0.25;0.25;;;6.20;99.90;;;;;;5113019;28;20174;-79
2022/01/05 12:18:30;;;;;;;0.40;0.30;;;6.30;99.90;;;;;;5123695;27;20173;-81
2022/01/05 12:20:58;;;;;;;0.40;0.40;;;6.30;99.90;;;;;;5151656;27;20166;-76
2022/01/05 12:23:27;;;;;;;1.88;0.50;;;6.30;99.90;;;;;;5151557;27;20204;-76
2022/01/05 12:26:16;;;;;;;3.40;1.10;;;6.30;99.90;;;;;;5133282;27;20163;-81
2022/01/05 12:28:57;;;;;;;1.88;1.30;;;6.30;99.90;;;;;;5122809;27;20181;-80
2022/01/05 12:31:53;;;;;;;1.25;0.55;;;6.30;99.90;;;;;;5132865;27;20169;-82
2022/01/05 12:34:56;;;;;;;3.05;0.30;;;6.30;99.90;;;;;;5132915;27;20193;-75
2022/01/05 12:38:04;;;;;;;0.52;0.30;;;6.40;99.90;;;;;;5151591;27;20173;-86
2022/01/05 12:40:36;;;;;;;0.68;0.57;;;6.30;99.90;;;;;;5028990;28;20253;-79
2022/01/05 12:43:11;;;;;;;0.80;0.60;;;6.30;99.90;;;;;;5027798;28;20217;-80
2022/01/05 12:46:05;;;;;;;0.98;0.88;;;6.40;99.90;;;;;;5010969;28;20583;-82
2022/01/05 12:48:39;;;;;;;0.68;0.63;;;6.40;99.90;;;;;;5027354;28;20173;-83
2022/01/05 12:51:17;;;;;;;2.63;0.98;;;6.40;99.90;;;;;;5011348;28;20197;-82
2022/01/05 12:54:02;;;;;;;1.90;0.68;;;6.40;99.90;;;;;;5011274;28;20256;-83
2022/01/05 12:56:39;;;;;;;3.50;0.60;;;6.40;99.90;;;;;;4999406;28;20190;-82
2022/01/05 12:59:10;;;;;;;2.17;0.60;;;6.50;99.90;;;;;;4990479;28;20222;-85
2022/01/05 13:01:36;;;;;;;1.92;1.00;;;6.50;99.90;;;;;;5008147;28;20178;-81
2022/01/05 13:04:10;;;;;;;2.53;1.38;;;6.40;99.90;;;;;;5025470;28;20224;-80
2022/01/05 13:06:38;;;;;;;2.28;1.35;;;6.40;99.90;;;;;;5011243;28;20165;-81